sensor_id;sensor_type;location;lat;lon;timestamp;temperature;humidity
76607;DHT22;65498;50.916;4.698;2023-05-16T00:01:40;21.90;56.10
76607;DHT22;65498;50.916;4.698;2023-05-16T00:04:07;21.90;55.30
76607;DHT22;65498;50.916;4.698;2023-05-16T00:06:35;22.00;55.10
76607;DHT22;65498;50.916;4.698;2023-05-16T00:09:02;22.00;54.90
76607;DHT22;65498;50.916;4.698;2023-05-16T00:11:30;22.00;55.00
76607;DHT22;65498;50.916;4.698;2023-05-16T00:13:57;22.00;55.00
76607;DHT22;65498;50.916;4.698;2023-05-16T00:16:27;21.90;54.90
76607;DHT22;65498;50.916;4.698;2023-05-16T00:18:56;22.00;54.80
76607;DHT22;65498;50.916;4.698;2023-05-16T00:21:25;21.90;54.70
76607;DHT22;65498;50.916;4.698;2023-05-16T00:23:52;22.00;54.50
76607;DHT22;65498;50.916;4.698;2023-05-16T00:26:20;21.90;54.50
76607;DHT22;65498;50.916;4.698;2023-05-16T00:28:48;22.00;54.60
76607;DHT22;65498;50.916;4.698;2023-05-16T00:31:15;22.00;54.40
76607;DHT22;65498;50.916;4.698;2023-05-16T00:33:43;21.90;54.80
76607;DHT22;65498;50.916;4.698;2023-05-16T00:36:11;21.90;54.70
76607;DHT22;65498;50.916;4.698;2023-05-16T00:38:38;21.90;54.70
76607;DHT22;65498;50.916;4.698;2023-05-16T00:41:06;21.90;54.60
76607;DHT22;65498;50.916;4.698;2023-05-16T00:43:33;21.90;54.50
76607;DHT22;65498;50.916;4.698;2023-05-16T00:46:01;21.90;54.40
76607;DHT22;65498;50.916;4.698;2023-05-16T00:48:29;21.90;54.30
76607;DHT22;65498;50.916;4.698;2023-05-16T00:50:56;21.90;54.20
76607;DHT22;65498;50.916;4.698;2023-05-16T00:53:24;21.90;54.30
76607;DHT22;65498;50.916;4.698;2023-05-16T00:55:53;21.90;54.40
76607;DHT22;65498;50.916;4.698;2023-05-16T00:58:22;21.80;54.20
76607;DHT22;65498;50.916;4.698;2023-05-16T01:00:51;21.80;54.10
76607;DHT22;65498;50.916;4.698;2023-05-16T01:03:19;21.80;54.30
76607;DHT22;65498;50.916;4.698;2023-05-16T01:05:46;21.80;54.20
76607;DHT22;65498;50.916;4.698;2023-05-16T01:08:15;21.80;54.00
76607;DHT22;65498;50.916;4.698;2023-05-16T01:10:49;21.80;54.10
76607;DHT22;65498;50.916;4.698;2023-05-16T01:13:26;21.70;54.30
76607;DHT22;65498;50.916;4.698;2023-05-16T01:16:04;21.70;54.40
76607;DHT22;65498;50.916;4.698;2023-05-16T01:19:18;21.80;53.90
76607;DHT22;65498;50.916;4.698;2023-05-16T01:21:06;21.80;53.80
76607;DHT22;65498;50.916;4.698;2023-05-16T01:23:50;21.80;53.80
76607;DHT22;65498;50.916;4.698;2023-05-16T01:26:21;21.70;53.80
76607;DHT22;65498;50.916;4.698;2023-05-16T01:28:50;21.80;53.90
76607;DHT22;65498;50.916;4.698;2023-05-16T01:31:19;21.70;53.70
76607;DHT22;65498;50.916;4.698;2023-05-16T01:33:47;21.70;53.70
76607;DHT22;65498;50.916;4.698;2023-05-16T01:39:05;21.70;53.60
76607;DHT22;65498;50.916;4.698;2023-05-16T01:41:38;21.70;53.60
76607;DHT22;65498;50.916;4.698;2023-05-16T01:44:07;21.70;53.60
76607;DHT22;65498;50.916;4.698;2023-05-16T01:46:39;21.70;53.60
76607;DHT22;65498;50.916;4.698;2023-05-16T01:49:16;21.70;53.70
76607;DHT22;65498;50.916;4.698;2023-05-16T01:51:53;21.60;53.60
76607;DHT22;65498;50.916;4.698;2023-05-16T01:54:22;21.60;53.50
76607;DHT22;65498;50.916;4.698;2023-05-16T01:56:54;21.70;53.60
76607;DHT22;65498;50.916;4.698;2023-05-16T01:59:20;21.60;53.50
76607;DHT22;65498;50.916;4.698;2023-05-16T02:01:48;21.60;53.60
76607;DHT22;65498;50.916;4.698;2023-05-16T02:04:15;21.60;53.70
76607;DHT22;65498;50.916;4.698;2023-05-16T02:06:43;21.60;54.40
76607;DHT22;65498;50.916;4.698;2023-05-16T02:09:11;21.60;53.30
76607;DHT22;65498;50.916;4.698;2023-05-16T02:11:39;21.60;53.40
76607;DHT22;65498;50.916;4.698;2023-05-16T02:14:06;21.60;53.40
76607;DHT22;65498;50.916;4.698;2023-05-16T02:16:34;21.60;53.40
76607;DHT22;65498;50.916;4.698;2023-05-16T02:19:02;21.60;53.30
76607;DHT22;65498;50.916;4.698;2023-05-16T02:21:29;21.60;53.40
76607;DHT22;65498;50.916;4.698;2023-05-16T02:23:57;21.60;53.60
76607;DHT22;65498;50.916;4.698;2023-05-16T02:26:24;21.60;52.90
76607;DHT22;65498;50.916;4.698;2023-05-16T02:28:52;21.60;54.40
76607;DHT22;65498;50.916;4.698;2023-05-16T02:31:28;21.60;53.70
76607;DHT22;65498;50.916;4.698;2023-05-16T02:33:57;21.60;53.40
76607;DHT22;65498;50.916;4.698;2023-05-16T02:36:25;21.50;53.30
76607;DHT22;65498;50.916;4.698;2023-05-16T02:38:52;21.50;53.40
76607;DHT22;65498;50.916;4.698;2023-05-16T02:41:20;21.60;53.30
76607;DHT22;65498;50.916;4.698;2023-05-16T02:43:51;21.50;53.60
76607;DHT22;65498;50.916;4.698;2023-05-16T02:46:27;21.50;53.90
76607;DHT22;65498;50.916;4.698;2023-05-16T02:48:56;21.50;53.30
76607;DHT22;65498;50.916;4.698;2023-05-16T02:51:25;21.50;53.30
76607;DHT22;65498;50.916;4.698;2023-05-16T02:53:54;21.50;52.90
76607;DHT22;65498;50.916;4.698;2023-05-16T02:56:28;21.50;53.40
76607;DHT22;65498;50.916;4.698;2023-05-16T02:58:56;21.50;53.50
76607;DHT22;65498;50.916;4.698;2023-05-16T03:01:23;21.50;53.50
76607;DHT22;65498;50.916;4.698;2023-05-16T03:03:51;21.50;53.30
76607;DHT22;65498;50.916;4.698;2023-05-16T03:06:18;21.50;53.50
76607;DHT22;65498;50.916;4.698;2023-05-16T03:08:46;21.50;53.50
76607;DHT22;65498;50.916;4.698;2023-05-16T03:11:15;21.40;53.10
76607;DHT22;65498;50.916;4.698;2023-05-16T03:13:45;21.50;53.20
76607;DHT22;65498;50.916;4.698;2023-05-16T03:16:12;21.40;52.90
76607;DHT22;65498;50.916;4.698;2023-05-16T03:18:41;21.40;53.10
76607;DHT22;65498;50.916;4.698;2023-05-16T03:21:09;21.40;53.10
76607;DHT22;65498;50.916;4.698;2023-05-16T03:23:36;21.40;53.40
76607;DHT22;65498;50.916;4.698;2023-05-16T03:26:04;21.40;53.50
76607;DHT22;65498;50.916;4.698;2023-05-16T03:28:31;21.40;53.20
76607;DHT22;65498;50.916;4.698;2023-05-16T03:30:59;21.40;53.40
76607;DHT22;65498;50.916;4.698;2023-05-16T03:33:26;21.30;54.10
76607;DHT22;65498;50.916;4.698;2023-05-16T03:35:54;21.30;53.40
76607;DHT22;65498;50.916;4.698;2023-05-16T03:38:21;21.30;53.60
76607;DHT22;65498;50.916;4.698;2023-05-16T03:40:49;21.30;53.70
76607;DHT22;65498;50.916;4.698;2023-05-16T03:43:16;21.30;53.40
76607;DHT22;65498;50.916;4.698;2023-05-16T03:45:44;21.30;53.30
76607;DHT22;65498;50.916;4.698;2023-05-16T03:48:12;21.30;53.70
76607;DHT22;65498;50.916;4.698;2023-05-16T03:50:39;21.30;53.30
76607;DHT22;65498;50.916;4.698;2023-05-16T03:53:08;21.20;53.30
76607;DHT22;65498;50.916;4.698;2023-05-16T03:55:36;21.30;53.30
76607;DHT22;65498;50.916;4.698;2023-05-16T03:58:03;21.20;53.70
76607;DHT22;65498;50.916;4.698;2023-05-16T04:00:31;21.20;53.30
76607;DHT22;65498;50.916;4.698;2023-05-16T04:03:00;21.20;53.30
76607;DHT22;65498;50.916;4.698;2023-05-16T04:05:27;21.20;53.40
76607;DHT22;65498;50.916;4.698;2023-05-16T04:07:55;21.20;53.70
76607;DHT22;65498;50.916;4.698;2023-05-16T04:10:22;21.20;53.30
76607;DHT22;65498;50.916;4.698;2023-05-16T04:12:50;21.20;53.50
76607;DHT22;65498;50.916;4.698;2023-05-16T04:15:18;21.20;53.40
76607;DHT22;65498;50.916;4.698;2023-05-16T04:17:45;21.20;53.40
76607;DHT22;65498;50.916;4.698;2023-05-16T04:20:13;21.20;53.40
76607;DHT22;65498;50.916;4.698;2023-05-16T04:22:40;21.20;53.50
76607;DHT22;65498;50.916;4.698;2023-05-16T04:25:08;21.20;53.40
76607;DHT22;65498;50.916;4.698;2023-05-16T04:27:37;21.20;53.60
76607;DHT22;65498;50.916;4.698;2023-05-16T04:30:05;21.20;53.60
76607;DHT22;65498;50.916;4.698;2023-05-16T04:32:33;21.20;53.60
76607;DHT22;65498;50.916;4.698;2023-05-16T04:35:02;21.10;53.50
76607;DHT22;65498;50.916;4.698;2023-05-16T04:37:30;21.20;53.30
76607;DHT22;65498;50.916;4.698;2023-05-16T04:39:57;21.20;53.40
76607;DHT22;65498;50.916;4.698;2023-05-16T04:42:25;21.10;53.30
76607;DHT22;65498;50.916;4.698;2023-05-16T04:44:53;21.10;53.30
76607;DHT22;65498;50.916;4.698;2023-05-16T04:47:21;21.10;53.50
76607;DHT22;65498;50.916;4.698;2023-05-16T04:49:49;21.10;54.30
76607;DHT22;65498;50.916;4.698;2023-05-16T04:52:16;21.10;53.10
76607;DHT22;65498;50.916;4.698;2023-05-16T04:54:44;21.10;53.60
76607;DHT22;65498;50.916;4.698;2023-05-16T04:57:11;21.10;53.40
76607;DHT22;65498;50.916;4.698;2023-05-16T04:59:39;21.10;53.60
76607;DHT22;65498;50.916;4.698;2023-05-16T05:02:06;21.10;53.30
76607;DHT22;65498;50.916;4.698;2023-05-16T05:04:34;21.10;53.30
76607;DHT22;65498;50.916;4.698;2023-05-16T05:07:02;21.10;53.20
76607;DHT22;65498;50.916;4.698;2023-05-16T05:09:29;21.10;53.50
76607;DHT22;65498;50.916;4.698;2023-05-16T05:11:57;21.20;53.30
76607;DHT22;65498;50.916;4.698;2023-05-16T05:14:24;21.20;53.50
76607;DHT22;65498;50.916;4.698;2023-05-16T05:16:52;21.20;53.00
76607;DHT22;65498;50.916;4.698;2023-05-16T05:19:19;21.20;52.90
76607;DHT22;65498;50.916;4.698;2023-05-16T05:21:47;21.20;52.70
76607;DHT22;65498;50.916;4.698;2023-05-16T05:24:14;21.20;52.60
76607;DHT22;65498;50.916;4.698;2023-05-16T05:26:42;21.30;52.60
76607;DHT22;65498;50.916;4.698;2023-05-16T05:29:09;21.30;52.30
76607;DHT22;65498;50.916;4.698;2023-05-16T05:31:37;21.40;51.90
76607;DHT22;65498;50.916;4.698;2023-05-16T05:34:05;21.40;52.00
76607;DHT22;65498;50.916;4.698;2023-05-16T05:36:32;21.40;52.10
76607;DHT22;65498;50.916;4.698;2023-05-16T05:39:00;21.40;51.60
76607;DHT22;65498;50.916;4.698;2023-05-16T05:41:27;21.40;51.50
76607;DHT22;65498;50.916;4.698;2023-05-16T05:43:55;21.40;51.50
76607;DHT22;65498;50.916;4.698;2023-05-16T05:46:23;21.50;51.80
76607;DHT22;65498;50.916;4.698;2023-05-16T05:48:51;21.40;51.60
76607;DHT22;65498;50.916;4.698;2023-05-16T05:51:19;21.50;51.90
76607;DHT22;65498;50.916;4.698;2023-05-16T05:53:47;21.50;51.20
76607;DHT22;65498;50.916;4.698;2023-05-16T05:56:15;21.40;51.80
76607;DHT22;65498;50.916;4.698;2023-05-16T05:58:43;21.40;51.80
76607;DHT22;65498;50.916;4.698;2023-05-16T06:01:11;21.30;52.00
76607;DHT22;65498;50.916;4.698;2023-05-16T06:03:38;21.30;51.90
76607;DHT22;65498;50.916;4.698;2023-05-16T06:06:06;21.30;52.30
76607;DHT22;65498;50.916;4.698;2023-05-16T06:08:34;21.30;52.10
76607;DHT22;65498;50.916;4.698;2023-05-16T06:11:02;21.40;51.90
76607;DHT22;65498;50.916;4.698;2023-05-16T06:13:29;21.40;51.90
76607;DHT22;65498;50.916;4.698;2023-05-16T06:15:57;21.40;52.60
76607;DHT22;65498;50.916;4.698;2023-05-16T06:18:25;21.40;52.00
76607;DHT22;65498;50.916;4.698;2023-05-16T06:20:52;21.40;52.10
76607;DHT22;65498;50.916;4.698;2023-05-16T06:23:20;21.40;51.80
76607;DHT22;65498;50.916;4.698;2023-05-16T06:25:47;21.40;52.00
76607;DHT22;65498;50.916;4.698;2023-05-16T06:28:15;21.50;52.40
76607;DHT22;65498;50.916;4.698;2023-05-16T06:30:42;21.50;52.30
76607;DHT22;65498;50.916;4.698;2023-05-16T06:33:10;21.40;52.30
76607;DHT22;65498;50.916;4.698;2023-05-16T06:35:38;21.50;52.50
76607;DHT22;65498;50.916;4.698;2023-05-16T06:38:06;21.40;53.10
76607;DHT22;65498;50.916;4.698;2023-05-16T06:40:33;21.40;52.60
76607;DHT22;65498;50.916;4.698;2023-05-16T06:43:02;21.40;52.40
76607;DHT22;65498;50.916;4.698;2023-05-16T06:45:29;21.40;52.90
76607;DHT22;65498;50.916;4.698;2023-05-16T06:47:57;21.40;52.90
76607;DHT22;65498;50.916;4.698;2023-05-16T06:50:24;21.40;53.30
76607;DHT22;65498;50.916;4.698;2023-05-16T06:52:52;21.40;53.20
76607;DHT22;65498;50.916;4.698;2023-05-16T06:55:19;21.40;53.80
76607;DHT22;65498;50.916;4.698;2023-05-16T06:57:47;21.30;52.70
76607;DHT22;65498;50.916;4.698;2023-05-16T07:00:15;21.30;52.90
76607;DHT22;65498;50.916;4.698;2023-05-16T07:02:43;21.40;52.70
76607;DHT22;65498;50.916;4.698;2023-05-16T07:05:10;21.40;52.50
76607;DHT22;65498;50.916;4.698;2023-05-16T07:07:38;21.40;53.40
76607;DHT22;65498;50.916;4.698;2023-05-16T07:10:06;21.40;53.40
76607;DHT22;65498;50.916;4.698;2023-05-16T07:12:35;21.40;53.90
76607;DHT22;65498;50.916;4.698;2023-05-16T07:15:05;21.50;53.90
76607;DHT22;65498;50.916;4.698;2023-05-16T07:17:33;21.40;53.90
76607;DHT22;65498;50.916;4.698;2023-05-16T07:20:00;21.40;53.80
76607;DHT22;65498;50.916;4.698;2023-05-16T07:22:28;21.50;54.20
76607;DHT22;65498;50.916;4.698;2023-05-16T07:24:56;21.50;53.60
76607;DHT22;65498;50.916;4.698;2023-05-16T07:27:25;21.40;54.10
76607;DHT22;65498;50.916;4.698;2023-05-16T07:29:53;21.40;54.30
76607;DHT22;65498;50.916;4.698;2023-05-16T07:32:21;21.40;54.10
76607;DHT22;65498;50.916;4.698;2023-05-16T07:34:48;21.40;54.10
76607;DHT22;65498;50.916;4.698;2023-05-16T07:37:16;21.30;54.10
76607;DHT22;65498;50.916;4.698;2023-05-16T07:39:44;21.30;54.50
76607;DHT22;65498;50.916;4.698;2023-05-16T07:42:12;21.30;54.50
76607;DHT22;65498;50.916;4.698;2023-05-16T07:44:39;21.30;53.40
76607;DHT22;65498;50.916;4.698;2023-05-16T07:47:07;21.30;50.40
76607;DHT22;65498;50.916;4.698;2023-05-16T07:49:34;21.30;47.80
76607;DHT22;65498;50.916;4.698;2023-05-16T07:52:02;21.30;45.60
76607;DHT22;65498;50.916;4.698;2023-05-16T07:54:31;21.30;45.00
76607;DHT22;65498;50.916;4.698;2023-05-16T07:56:58;21.30;43.70
76607;DHT22;65498;50.916;4.698;2023-05-16T07:59:27;21.30;43.90
76607;DHT22;65498;50.916;4.698;2023-05-16T08:01:55;21.30;43.70
76607;DHT22;65498;50.916;4.698;2023-05-16T08:04:22;21.30;43.20
76607;DHT22;65498;50.916;4.698;2023-05-16T08:06:50;21.20;42.90
76607;DHT22;65498;50.916;4.698;2023-05-16T08:09:17;21.20;42.80
76607;DHT22;65498;50.916;4.698;2023-05-16T08:11:45;21.20;42.50
76607;DHT22;65498;50.916;4.698;2023-05-16T08:14:12;21.20;42.50
76607;DHT22;65498;50.916;4.698;2023-05-16T08:16:40;21.20;42.50
76607;DHT22;65498;50.916;4.698;2023-05-16T08:19:07;21.20;42.80
76607;DHT22;65498;50.916;4.698;2023-05-16T08:21:35;21.20;41.70
76607;DHT22;65498;50.916;4.698;2023-05-16T08:24:03;21.20;42.50
76607;DHT22;65498;50.916;4.698;2023-05-16T08:26:31;21.20;42.10
76607;DHT22;65498;50.916;4.698;2023-05-16T08:28:59;21.20;42.50
76607;DHT22;65498;50.916;4.698;2023-05-16T08:31:27;21.20;42.10
76607;DHT22;65498;50.916;4.698;2023-05-16T08:33:54;21.20;41.60
76607;DHT22;65498;50.916;4.698;2023-05-16T08:36:22;21.20;42.20
76607;DHT22;65498;50.916;4.698;2023-05-16T08:38:49;21.20;42.60
76607;DHT22;65498;50.916;4.698;2023-05-16T08:41:17;21.20;43.10
76607;DHT22;65498;50.916;4.698;2023-05-16T08:43:45;21.20;42.90
76607;DHT22;65498;50.916;4.698;2023-05-16T08:46:12;21.20;41.70
76607;DHT22;65498;50.916;4.698;2023-05-16T08:48:41;21.20;43.20
76607;DHT22;65498;50.916;4.698;2023-05-16T08:51:11;21.20;41.90
76607;DHT22;65498;50.916;4.698;2023-05-16T08:53:44;21.20;41.50
76607;DHT22;65498;50.916;4.698;2023-05-16T08:56:12;21.20;41.40
76607;DHT22;65498;50.916;4.698;2023-05-16T08:58:41;21.20;41.20
76607;DHT22;65498;50.916;4.698;2023-05-16T09:01:09;21.20;41.90
76607;DHT22;65498;50.916;4.698;2023-05-16T09:03:37;21.20;41.50
76607;DHT22;65498;50.916;4.698;2023-05-16T09:06:05;21.20;42.40
76607;DHT22;65498;50.916;4.698;2023-05-16T09:08:33;21.20;41.30
76607;DHT22;65498;50.916;4.698;2023-05-16T09:11:01;21.20;41.10
76607;DHT22;65498;50.916;4.698;2023-05-16T09:13:30;21.20;41.10
76607;DHT22;65498;50.916;4.698;2023-05-16T09:16:11;21.20;41.50
76607;DHT22;65498;50.916;4.698;2023-05-16T09:18:39;21.20;41.00
76607;DHT22;65498;50.916;4.698;2023-05-16T09:21:10;21.20;41.70
76607;DHT22;65498;50.916;4.698;2023-05-16T09:23:37;21.20;41.60
76607;DHT22;65498;50.916;4.698;2023-05-16T09:26:05;21.20;41.70
76607;DHT22;65498;50.916;4.698;2023-05-16T09:28:36;21.10;41.90
76607;DHT22;65498;50.916;4.698;2023-05-16T09:31:03;21.20;41.90
76607;DHT22;65498;50.916;4.698;2023-05-16T09:33:31;21.20;42.00
76607;DHT22;65498;50.916;4.698;2023-05-16T09:35:59;21.20;42.40
76607;DHT22;65498;50.916;4.698;2023-05-16T09:38:28;21.20;42.60
76607;DHT22;65498;50.916;4.698;2023-05-16T09:40:55;21.20;41.80
76607;DHT22;65498;50.916;4.698;2023-05-16T09:43:25;21.20;42.60
76607;DHT22;65498;50.916;4.698;2023-05-16T09:45:53;21.20;42.00
76607;DHT22;65498;50.916;4.698;2023-05-16T09:48:21;21.20;42.10
76607;DHT22;65498;50.916;4.698;2023-05-16T09:50:52;21.20;42.30
76607;DHT22;65498;50.916;4.698;2023-05-16T09:53:30;21.20;42.70
76607;DHT22;65498;50.916;4.698;2023-05-16T09:56:03;21.20;42.60
76607;DHT22;65498;50.916;4.698;2023-05-16T09:58:32;21.20;42.60
76607;DHT22;65498;50.916;4.698;2023-05-16T10:01:00;21.20;42.60
76607;DHT22;65498;50.916;4.698;2023-05-16T10:03:29;21.20;42.60
76607;DHT22;65498;50.916;4.698;2023-05-16T10:05:57;21.20;42.60
76607;DHT22;65498;50.916;4.698;2023-05-16T10:08:26;21.20;43.00
76607;DHT22;65498;50.916;4.698;2023-05-16T10:10:55;21.20;42.90
76607;DHT22;65498;50.916;4.698;2023-05-16T10:13:29;21.20;42.60
76607;DHT22;65498;50.916;4.698;2023-05-16T10:15:59;21.20;42.90
76607;DHT22;65498;50.916;4.698;2023-05-16T10:18:30;21.20;42.70
76607;DHT22;65498;50.916;4.698;2023-05-16T10:21:01;21.20;42.00
76607;DHT22;65498;50.916;4.698;2023-05-16T10:23:27;21.20;42.00
76607;DHT22;65498;50.916;4.698;2023-05-16T10:25:57;21.20;42.30
76607;DHT22;65498;50.916;4.698;2023-05-16T10:28:25;21.30;43.30
76607;DHT22;65498;50.916;4.698;2023-05-16T10:30:53;21.30;42.70
76607;DHT22;65498;50.916;4.698;2023-05-16T10:33:21;21.20;42.70
76607;DHT22;65498;50.916;4.698;2023-05-16T10:35:48;21.20;43.50
76607;DHT22;65498;50.916;4.698;2023-05-16T10:38:17;21.30;43.20
76607;DHT22;65498;50.916;4.698;2023-05-16T10:40:46;21.20;44.20
76607;DHT22;65498;50.916;4.698;2023-05-16T10:43:23;21.30;44.50
76607;DHT22;65498;50.916;4.698;2023-05-16T10:45:53;21.30;44.90
76607;DHT22;65498;50.916;4.698;2023-05-16T10:48:30;21.30;45.40
76607;DHT22;65498;50.916;4.698;2023-05-16T10:50:58;21.40;45.50
76607;DHT22;65498;50.916;4.698;2023-05-16T10:53:35;21.30;45.60
76607;DHT22;65498;50.916;4.698;2023-05-16T11:04:00;21.40;46.70
76607;DHT22;65498;50.916;4.698;2023-05-16T11:06:43;21.30;46.70
76607;DHT22;65498;50.916;4.698;2023-05-16T11:09:06;21.40;46.70
76607;DHT22;65498;50.916;4.698;2023-05-16T11:11:57;21.40;46.50
76607;DHT22;65498;50.916;4.698;2023-05-16T11:17:14;21.30;47.60
76607;DHT22;65498;50.916;4.698;2023-05-16T11:19:56;21.30;48.60
76607;DHT22;65498;50.916;4.698;2023-05-16T11:22:28;21.30;49.40
76607;DHT22;65498;50.916;4.698;2023-05-16T11:27:29;21.30;50.10
76607;DHT22;65498;50.916;4.698;2023-05-16T11:30:13;21.30;50.90
76607;DHT22;65498;50.916;4.698;2023-05-16T11:32:39;21.30;50.30
76607;DHT22;65498;50.916;4.698;2023-05-16T11:35:09;21.30;50.50
76607;DHT22;65498;50.916;4.698;2023-05-16T11:37:37;21.30;50.90
76607;DHT22;65498;50.916;4.698;2023-05-16T11:42:53;21.30;51.20
76607;DHT22;65498;50.916;4.698;2023-05-16T11:45:21;21.30;51.00
76607;DHT22;65498;50.916;4.698;2023-05-16T11:47:51;21.30;51.30
76607;DHT22;65498;50.916;4.698;2023-05-16T11:50:20;21.30;51.20
76607;DHT22;65498;50.916;4.698;2023-05-16T11:52:50;21.40;51.40
76607;DHT22;65498;50.916;4.698;2023-05-16T11:55:25;21.40;51.50
76607;DHT22;65498;50.916;4.698;2023-05-16T11:57:54;21.40;51.60
76607;DHT22;65498;50.916;4.698;2023-05-16T12:00:23;21.40;51.70
76607;DHT22;65498;50.916;4.698;2023-05-16T12:02:53;21.40;51.10
76607;DHT22;65498;50.916;4.698;2023-05-16T12:05:21;21.50;51.90
76607;DHT22;65498;50.916;4.698;2023-05-16T12:07:53;21.40;51.80
76607;DHT22;65498;50.916;4.698;2023-05-16T12:10:21;21.40;51.80
76607;DHT22;65498;50.916;4.698;2023-05-16T12:12:51;21.50;51.60
76607;DHT22;65498;50.916;4.698;2023-05-16T12:15:19;21.50;52.10
76607;DHT22;65498;50.916;4.698;2023-05-16T12:17:47;21.40;52.00
76607;DHT22;65498;50.916;4.698;2023-05-16T12:20:15;21.50;51.60
76607;DHT22;65498;50.916;4.698;2023-05-16T12:22:44;21.50;52.30
76607;DHT22;65498;50.916;4.698;2023-05-16T12:25:20;21.50;51.90
76607;DHT22;65498;50.916;4.698;2023-05-16T12:27:48;21.50;51.90
76607;DHT22;65498;50.916;4.698;2023-05-16T12:30:17;21.50;52.30
76607;DHT22;65498;50.916;4.698;2023-05-16T12:32:45;21.50;52.30
76607;DHT22;65498;50.916;4.698;2023-05-16T12:35:12;21.50;52.60
76607;DHT22;65498;50.916;4.698;2023-05-16T12:37:42;21.50;52.10
76607;DHT22;65498;50.916;4.698;2023-05-16T12:40:10;21.50;52.50
76607;DHT22;65498;50.916;4.698;2023-05-16T12:42:38;21.50;52.20
76607;DHT22;65498;50.916;4.698;2023-05-16T12:45:16;21.50;52.70
76607;DHT22;65498;50.916;4.698;2023-05-16T12:47:41;21.50;51.90
76607;DHT22;65498;50.916;4.698;2023-05-16T12:50:10;21.50;52.30
76607;DHT22;65498;50.916;4.698;2023-05-16T12:52:52;21.50;52.60
76607;DHT22;65498;50.916;4.698;2023-05-16T12:55:18;21.50;52.10
76607;DHT22;65498;50.916;4.698;2023-05-16T12:57:47;21.50;52.10
76607;DHT22;65498;50.916;4.698;2023-05-16T13:00:17;21.50;52.70
76607;DHT22;65498;50.916;4.698;2023-05-16T13:02:46;21.50;52.70
76607;DHT22;65498;50.916;4.698;2023-05-16T13:05:14;21.50;52.30
76607;DHT22;65498;50.916;4.698;2023-05-16T13:07:43;21.50;53.00
76607;DHT22;65498;50.916;4.698;2023-05-16T13:10:11;21.50;52.50
76607;DHT22;65498;50.916;4.698;2023-05-16T13:12:39;21.50;53.10
76607;DHT22;65498;50.916;4.698;2023-05-16T13:15:09;21.50;52.80
76607;DHT22;65498;50.916;4.698;2023-05-16T13:17:41;21.50;53.10
76607;DHT22;65498;50.916;4.698;2023-05-16T13:20:10;21.50;53.20
76607;DHT22;65498;50.916;4.698;2023-05-16T13:22:41;21.50;53.10
76607;DHT22;65498;50.916;4.698;2023-05-16T13:25:09;21.50;52.90
76607;DHT22;65498;50.916;4.698;2023-05-16T13:27:37;21.50;52.90
76607;DHT22;65498;50.916;4.698;2023-05-16T13:30:05;21.50;53.60
76607;DHT22;65498;50.916;4.698;2023-05-16T13:32:33;21.50;53.20
76607;DHT22;65498;50.916;4.698;2023-05-16T13:35:01;21.50;53.30
76607;DHT22;65498;50.916;4.698;2023-05-16T13:37:29;21.50;53.50
76607;DHT22;65498;50.916;4.698;2023-05-16T13:39:57;21.50;53.00
76607;DHT22;65498;50.916;4.698;2023-05-16T13:42:25;21.60;50.90
76607;DHT22;65498;50.916;4.698;2023-05-16T13:44:52;21.60;51.70
76607;DHT22;65498;50.916;4.698;2023-05-16T13:47:20;21.60;51.60
76607;DHT22;65498;50.916;4.698;2023-05-16T13:49:47;21.60;52.30
76607;DHT22;65498;50.916;4.698;2023-05-16T13:52:16;21.60;52.20
76607;DHT22;65498;50.916;4.698;2023-05-16T13:54:43;21.60;52.30
76607;DHT22;65498;50.916;4.698;2023-05-16T13:57:11;21.60;52.40
76607;DHT22;65498;50.916;4.698;2023-05-16T13:59:38;21.60;52.40
76607;DHT22;65498;50.916;4.698;2023-05-16T14:02:06;21.60;52.40
76607;DHT22;65498;50.916;4.698;2023-05-16T14:04:33;21.60;52.40
76607;DHT22;65498;50.916;4.698;2023-05-16T14:07:01;21.70;52.40
76607;DHT22;65498;50.916;4.698;2023-05-16T14:09:29;21.70;52.40
76607;DHT22;65498;50.916;4.698;2023-05-16T14:11:57;21.70;52.50
76607;DHT22;65498;50.916;4.698;2023-05-16T14:14:24;21.60;52.50
76607;DHT22;65498;50.916;4.698;2023-05-16T14:16:52;21.70;52.60
76607;DHT22;65498;50.916;4.698;2023-05-16T14:19:19;21.70;52.80
76607;DHT22;65498;50.916;4.698;2023-05-16T14:21:47;21.60;52.70
76607;DHT22;65498;50.916;4.698;2023-05-16T14:24:14;21.60;52.80
76607;DHT22;65498;50.916;4.698;2023-05-16T14:26:42;21.60;52.80
76607;DHT22;65498;50.916;4.698;2023-05-16T14:29:10;21.60;52.80
76607;DHT22;65498;50.916;4.698;2023-05-16T14:31:39;21.60;52.90
76607;DHT22;65498;50.916;4.698;2023-05-16T14:34:07;21.60;52.80
76607;DHT22;65498;50.916;4.698;2023-05-16T14:36:34;21.60;52.90
76607;DHT22;65498;50.916;4.698;2023-05-16T14:39:02;21.60;52.90
76607;DHT22;65498;50.916;4.698;2023-05-16T14:41:30;21.50;52.90
76607;DHT22;65498;50.916;4.698;2023-05-16T14:43:57;21.60;53.00
76607;DHT22;65498;50.916;4.698;2023-05-16T14:46:25;21.60;52.90
76607;DHT22;65498;50.916;4.698;2023-05-16T14:48:53;21.60;53.00
76607;DHT22;65498;50.916;4.698;2023-05-16T14:51:20;21.60;53.00
76607;DHT22;65498;50.916;4.698;2023-05-16T14:53:48;21.60;53.00
76607;DHT22;65498;50.916;4.698;2023-05-16T14:56:15;21.60;53.00
76607;DHT22;65498;50.916;4.698;2023-05-16T14:58:43;21.60;53.00
76607;DHT22;65498;50.916;4.698;2023-05-16T15:01:10;21.50;53.10
76607;DHT22;65498;50.916;4.698;2023-05-16T15:03:38;21.50;53.00
76607;DHT22;65498;50.916;4.698;2023-05-16T15:06:06;21.50;52.40
76607;DHT22;65498;50.916;4.698;2023-05-16T15:08:34;21.50;51.40
76607;DHT22;65498;50.916;4.698;2023-05-16T15:11:03;21.50;49.60
76607;DHT22;65498;50.916;4.698;2023-05-16T15:13:30;21.50;49.00
76607;DHT22;65498;50.916;4.698;2023-05-16T15:15:57;21.60;48.40
76607;DHT22;65498;50.916;4.698;2023-05-16T15:18:25;21.60;48.10
76607;DHT22;65498;50.916;4.698;2023-05-16T15:20:52;21.60;48.50
76607;DHT22;65498;50.916;4.698;2023-05-16T15:23:20;21.60;48.60
76607;DHT22;65498;50.916;4.698;2023-05-16T15:25:48;21.60;49.00
76607;DHT22;65498;50.916;4.698;2023-05-16T15:28:17;21.60;49.20
76607;DHT22;65498;50.916;4.698;2023-05-16T15:30:44;21.60;49.20
76607;DHT22;65498;50.916;4.698;2023-05-16T15:33:12;21.60;49.50
76607;DHT22;65498;50.916;4.698;2023-05-16T15:35:40;21.50;49.50
76607;DHT22;65498;50.916;4.698;2023-05-16T15:38:08;21.60;49.10
76607;DHT22;65498;50.916;4.698;2023-05-16T15:40:35;21.60;47.40
76607;DHT22;65498;50.916;4.698;2023-05-16T15:43:03;21.70;47.50
76607;DHT22;65498;50.916;4.698;2023-05-16T15:45:31;21.70;47.60
76607;DHT22;65498;50.916;4.698;2023-05-16T15:47:58;21.70;48.10
76607;DHT22;65498;50.916;4.698;2023-05-16T15:50:26;21.70;47.20
76607;DHT22;65498;50.916;4.698;2023-05-16T15:52:53;21.70;47.00
76607;DHT22;65498;50.916;4.698;2023-05-16T15:55:23;21.70;47.10
76607;DHT22;65498;50.916;4.698;2023-05-16T15:57:50;21.70;47.10